sensor_id;sensor_type;location;lat;lon;timestamp;temperature;humidity
38183;DHT22;23991;52.430;10.586;2023-07-09T00:01:53;23.40;50.40
38183;DHT22;23991;52.430;10.586;2023-07-09T00:04:21;23.40;50.50
38183;DHT22;23991;52.430;10.586;2023-07-09T00:06:47;23.30;50.50
38183;DHT22;23991;52.430;10.586;2023-07-09T00:09:18;23.30;50.50
38183;DHT22;23991;52.430;10.586;2023-07-09T00:11:44;23.30;50.60
38183;DHT22;23991;52.430;10.586;2023-07-09T00:14:11;23.30;50.60
38183;DHT22;23991;52.430;10.586;2023-07-09T00:16:38;23.30;50.80
38183;DHT22;23991;52.430;10.586;2023-07-09T00:19:09;23.20;50.90
38183;DHT22;23991;52.430;10.586;2023-07-09T00:21:36;23.20;50.40
38183;DHT22;23991;52.430;10.586;2023-07-09T00:24:05;23.20;50.40
38183;DHT22;23991;52.430;10.586;2023-07-09T00:26:31;23.20;50.20
38183;DHT22;23991;52.430;10.586;2023-07-09T00:28:58;23.10;50.30
38183;DHT22;23991;52.430;10.586;2023-07-09T00:31:24;23.10;50.40
38183;DHT22;23991;52.430;10.586;2023-07-09T00:33:51;23.00;50.50
38183;DHT22;23991;52.430;10.586;2023-07-09T00:36:22;23.00;50.40
38183;DHT22;23991;52.430;10.586;2023-07-09T00:38:49;23.00;50.40
38183;DHT22;23991;52.430;10.586;2023-07-09T00:41:22;23.00;50.50
38183;DHT22;23991;52.430;10.586;2023-07-09T00:43:51;22.90;50.80
38183;DHT22;23991;52.430;10.586;2023-07-09T00:48:51;22.90;50.50
38183;DHT22;23991;52.430;10.586;2023-07-09T00:51:20;22.80;50.60
38183;DHT22;23991;52.430;10.586;2023-07-09T00:53:50;22.80;50.70
38183;DHT22;23991;52.430;10.586;2023-07-09T00:56:31;22.80;50.70
38183;DHT22;23991;52.430;10.586;2023-07-09T00:59:01;22.80;50.50
38183;DHT22;23991;52.430;10.586;2023-07-09T01:01:30;22.80;50.40
38183;DHT22;23991;52.430;10.586;2023-07-09T01:03:58;22.80;50.30
38183;DHT22;23991;52.430;10.586;2023-07-09T01:09:01;22.80;50.60
38183;DHT22;23991;52.430;10.586;2023-07-09T01:11:27;22.80;50.60
38183;DHT22;23991;52.430;10.586;2023-07-09T01:13:56;22.70;50.70
38183;DHT22;23991;52.430;10.586;2023-07-09T01:16:25;22.70;50.90
38183;DHT22;23991;52.430;10.586;2023-07-09T01:18:53;22.60;51.00
38183;DHT22;23991;52.430;10.586;2023-07-09T01:21:19;22.60;51.10
38183;DHT22;23991;52.430;10.586;2023-07-09T01:23:49;22.50;51.30
38183;DHT22;23991;52.430;10.586;2023-07-09T01:26:21;22.50;51.50
38183;DHT22;23991;52.430;10.586;2023-07-09T01:28:50;22.50;51.70
38183;DHT22;23991;52.430;10.586;2023-07-09T01:31:15;22.40;51.70
38183;DHT22;23991;52.430;10.586;2023-07-09T01:33:42;22.40;51.80
38183;DHT22;23991;52.430;10.586;2023-07-09T01:36:11;22.40;52.10
38183;DHT22;23991;52.430;10.586;2023-07-09T01:38:39;22.30;51.90
38183;DHT22;23991;52.430;10.586;2023-07-09T01:41:04;22.30;52.50
38183;DHT22;23991;52.430;10.586;2023-07-09T01:43:31;22.30;52.60
38183;DHT22;23991;52.430;10.586;2023-07-09T01:45:57;22.30;52.70
38183;DHT22;23991;52.430;10.586;2023-07-09T01:48:25;22.30;52.70
38183;DHT22;23991;52.430;10.586;2023-07-09T01:50:51;22.20;52.80
38183;DHT22;23991;52.430;10.586;2023-07-09T01:53:21;22.20;53.10
38183;DHT22;23991;52.430;10.586;2023-07-09T01:55:49;22.20;53.30
38183;DHT22;23991;52.430;10.586;2023-07-09T01:58:17;22.10;53.60
38183;DHT22;23991;52.430;10.586;2023-07-09T02:00:43;22.00;53.70
38183;DHT22;23991;52.430;10.586;2023-07-09T02:03:10;22.00;53.50
38183;DHT22;23991;52.430;10.586;2023-07-09T02:05:36;22.00;53.50
38183;DHT22;23991;52.430;10.586;2023-07-09T02:08:02;22.00;53.50
38183;DHT22;23991;52.430;10.586;2023-07-09T02:10:28;22.00;53.40
38183;DHT22;23991;52.430;10.586;2023-07-09T02:12:54;21.80;53.40
38183;DHT22;23991;52.430;10.586;2023-07-09T02:15:19;21.80;53.50
38183;DHT22;23991;52.430;10.586;2023-07-09T02:17:45;21.80;53.60
38183;DHT22;23991;52.430;10.586;2023-07-09T02:20:12;21.80;53.80
38183;DHT22;23991;52.430;10.586;2023-07-09T02:22:39;21.80;53.70
38183;DHT22;23991;52.430;10.586;2023-07-09T02:25:05;21.70;53.70
38183;DHT22;23991;52.430;10.586;2023-07-09T02:27:32;21.70;53.90
38183;DHT22;23991;52.430;10.586;2023-07-09T02:29:58;21.70;54.00
38183;DHT22;23991;52.430;10.586;2023-07-09T02:32:26;21.70;54.10
38183;DHT22;23991;52.430;10.586;2023-07-09T02:34:53;21.60;54.50
38183;DHT22;23991;52.430;10.586;2023-07-09T02:37:21;21.50;54.40
38183;DHT22;23991;52.430;10.586;2023-07-09T02:39:46;21.50;54.50
38183;DHT22;23991;52.430;10.586;2023-07-09T02:42:17;21.50;54.50
38183;DHT22;23991;52.430;10.586;2023-07-09T02:44:44;21.40;54.70
38183;DHT22;23991;52.430;10.586;2023-07-09T02:47:10;21.40;54.70
38183;DHT22;23991;52.430;10.586;2023-07-09T02:49:37;21.30;55.00
38183;DHT22;23991;52.430;10.586;2023-07-09T02:52:03;21.30;55.10
38183;DHT22;23991;52.430;10.586;2023-07-09T02:54:29;21.30;55.30
38183;DHT22;23991;52.430;10.586;2023-07-09T02:56:54;21.30;55.70
38183;DHT22;23991;52.430;10.586;2023-07-09T02:59:20;21.30;55.40
38183;DHT22;23991;52.430;10.586;2023-07-09T03:01:46;21.20;55.50
38183;DHT22;23991;52.430;10.586;2023-07-09T03:04:13;21.20;55.40
38183;DHT22;23991;52.430;10.586;2023-07-09T03:06:39;21.20;55.50
38183;DHT22;23991;52.430;10.586;2023-07-09T03:09:05;21.20;55.90
38183;DHT22;23991;52.430;10.586;2023-07-09T03:11:33;21.10;56.00
38183;DHT22;23991;52.430;10.586;2023-07-09T03:13:59;21.10;56.00
38183;DHT22;23991;52.430;10.586;2023-07-09T03:16:30;21.10;56.20
38183;DHT22;23991;52.430;10.586;2023-07-09T03:18:57;21.00;56.20
38183;DHT22;23991;52.430;10.586;2023-07-09T03:21:24;21.00;56.20
38183;DHT22;23991;52.430;10.586;2023-07-09T03:23:50;21.00;56.20
38183;DHT22;23991;52.430;10.586;2023-07-09T03:26:16;20.90;56.30
38183;DHT22;23991;52.430;10.586;2023-07-09T03:28:41;21.00;56.40
38183;DHT22;23991;52.430;10.586;2023-07-09T03:31:07;21.00;56.40
38183;DHT22;23991;52.430;10.586;2023-07-09T03:33:32;21.00;56.40
38183;DHT22;23991;52.430;10.586;2023-07-09T03:35:58;21.00;56.50
38183;DHT22;23991;52.430;10.586;2023-07-09T03:38:26;21.10;56.60
38183;DHT22;23991;52.430;10.586;2023-07-09T03:40:55;21.20;56.90
38183;DHT22;23991;52.430;10.586;2023-07-09T03:43:21;21.10;56.70
38183;DHT22;23991;52.430;10.586;2023-07-09T03:45:50;21.20;56.60
38183;DHT22;23991;52.430;10.586;2023-07-09T03:48:18;21.20;56.80
38183;DHT22;23991;52.430;10.586;2023-07-09T03:50:46;21.20;56.70
38183;DHT22;23991;52.430;10.586;2023-07-09T03:53:15;21.30;56.90
38183;DHT22;23991;52.430;10.586;2023-07-09T03:55:42;21.30;56.90
38183;DHT22;23991;52.430;10.586;2023-07-09T03:58:08;21.30;56.80
38183;DHT22;23991;52.430;10.586;2023-07-09T04:00:36;21.40;56.10
38183;DHT22;23991;52.430;10.586;2023-07-09T04:03:02;21.40;56.00
38183;DHT22;23991;52.430;10.586;2023-07-09T04:05:28;21.50;55.90
38183;DHT22;23991;52.430;10.586;2023-07-09T04:07:54;21.50;55.70
38183;DHT22;23991;52.430;10.586;2023-07-09T04:10:20;21.60;55.40
38183;DHT22;23991;52.430;10.586;2023-07-09T04:12:45;21.60;55.40
38183;DHT22;23991;52.430;10.586;2023-07-09T04:15:12;21.70;55.40
38183;DHT22;23991;52.430;10.586;2023-07-09T04:17:41;21.70;55.30
38183;DHT22;23991;52.430;10.586;2023-07-09T04:20:08;21.70;55.20
38183;DHT22;23991;52.430;10.586;2023-07-09T04:22:34;21.80;55.00
38183;DHT22;23991;52.430;10.586;2023-07-09T04:25:01;21.80;54.80
38183;DHT22;23991;52.430;10.586;2023-07-09T04:27:28;21.90;54.80
38183;DHT22;23991;52.430;10.586;2023-07-09T04:29:54;22.00;54.60
38183;DHT22;23991;52.430;10.586;2023-07-09T04:32:20;22.10;54.40
38183;DHT22;23991;52.430;10.586;2023-07-09T04:34:46;22.10;54.50
38183;DHT22;23991;52.430;10.586;2023-07-09T04:37:12;22.20;54.10
38183;DHT22;23991;52.430;10.586;2023-07-09T04:39:39;22.30;54.20
38183;DHT22;23991;52.430;10.586;2023-07-09T04:42:05;22.30;54.30
38183;DHT22;23991;52.430;10.586;2023-07-09T04:44:31;22.30;54.10
38183;DHT22;23991;52.430;10.586;2023-07-09T04:46:57;22.50;54.00
38183;DHT22;23991;52.430;10.586;2023-07-09T04:49:22;22.60;53.70
38183;DHT22;23991;52.430;10.586;2023-07-09T04:51:48;22.70;53.60
38183;DHT22;23991;52.430;10.586;2023-07-09T04:54:14;22.70;53.70
38183;DHT22;23991;52.430;10.586;2023-07-09T04:56:41;22.80;53.50
38183;DHT22;23991;52.430;10.586;2023-07-09T04:59:09;22.90;53.50
38183;DHT22;23991;52.430;10.586;2023-07-09T05:01:35;23.00;53.40
38183;DHT22;23991;52.430;10.586;2023-07-09T05:04:00;23.10;53.40
38183;DHT22;23991;52.430;10.586;2023-07-09T05:06:26;23.20;52.80
38183;DHT22;23991;52.430;10.586;2023-07-09T05:08:51;23.30;52.70
38183;DHT22;23991;52.430;10.586;2023-07-09T05:11:17;23.40;52.20
38183;DHT22;23991;52.430;10.586;2023-07-09T05:13:45;23.40;52.50
38183;DHT22;23991;52.430;10.586;2023-07-09T05:16:10;23.50;52.40
38183;DHT22;23991;52.430;10.586;2023-07-09T05:18:36;23.60;52.70
38183;DHT22;23991;52.430;10.586;2023-07-09T05:21:02;23.80;51.90
38183;DHT22;23991;52.430;10.586;2023-07-09T05:23:27;23.80;51.90
38183;DHT22;23991;52.430;10.586;2023-07-09T05:26:01;23.90;52.30
38183;DHT22;23991;52.430;10.586;2023-07-09T05:28:28;24.10;52.10
38183;DHT22;23991;52.430;10.586;2023-07-09T05:30:53;24.20;52.30
38183;DHT22;23991;52.430;10.586;2023-07-09T05:33:19;24.20;52.30
38183;DHT22;23991;52.430;10.586;2023-07-09T05:35:45;24.40;51.80
38183;DHT22;23991;52.430;10.586;2023-07-09T05:38:12;24.60;51.40
38183;DHT22;23991;52.430;10.586;2023-07-09T05:40:38;24.70;51.30
38183;DHT22;23991;52.430;10.586;2023-07-09T05:43:04;24.80;50.20
38183;DHT22;23991;52.430;10.586;2023-07-09T05:45:30;25.00;49.30
38183;DHT22;23991;52.430;10.586;2023-07-09T05:47:58;25.20;49.00
38183;DHT22;23991;52.430;10.586;2023-07-09T05:50:23;25.30;48.80
38183;DHT22;23991;52.430;10.586;2023-07-09T05:52:49;25.40;49.40
38183;DHT22;23991;52.430;10.586;2023-07-09T05:55:17;25.30;49.60
38183;DHT22;23991;52.430;10.586;2023-07-09T05:57:43;25.30;50.30
38183;DHT22;23991;52.430;10.586;2023-07-09T06:00:09;25.50;50.40
38183;DHT22;23991;52.430;10.586;2023-07-09T06:02:37;25.60;49.80
38183;DHT22;23991;52.430;10.586;2023-07-09T06:05:04;25.60;49.50
38183;DHT22;23991;52.430;10.586;2023-07-09T06:07:29;25.70;49.80
38183;DHT22;23991;52.430;10.586;2023-07-09T06:09:55;25.80;48.90
38183;DHT22;23991;52.430;10.586;2023-07-09T06:12:21;25.90;48.70
38183;DHT22;23991;52.430;10.586;2023-07-09T06:14:46;26.20;48.30
38183;DHT22;23991;52.430;10.586;2023-07-09T06:17:12;26.30;48.20
38183;DHT22;23991;52.430;10.586;2023-07-09T06:19:38;26.50;48.00
38183;DHT22;23991;52.430;10.586;2023-07-09T06:22:04;26.50;47.80
38183;DHT22;23991;52.430;10.586;2023-07-09T06:24:30;26.60;47.50
38183;DHT22;23991;52.430;10.586;2023-07-09T06:26:56;26.80;46.90
38183;DHT22;23991;52.430;10.586;2023-07-09T06:29:21;27.00;47.20
38183;DHT22;23991;52.430;10.586;2023-07-09T06:31:47;27.20;46.90
38183;DHT22;23991;52.430;10.586;2023-07-09T06:34:12;27.20;46.90
38183;DHT22;23991;52.430;10.586;2023-07-09T06:36:38;27.20;47.20
38183;DHT22;23991;52.430;10.586;2023-07-09T06:39:04;27.30;46.70
38183;DHT22;23991;52.430;10.586;2023-07-09T06:41:31;27.30;46.50
38183;DHT22;23991;52.430;10.586;2023-07-09T06:43:58;27.60;46.10
38183;DHT22;23991;52.430;10.586;2023-07-09T06:46:23;28.00;44.90
38183;DHT22;23991;52.430;10.586;2023-07-09T06:48:49;28.20;45.20
38183;DHT22;23991;52.430;10.586;2023-07-09T06:51:14;28.20;45.70
38183;DHT22;23991;52.430;10.586;2023-07-09T06:53:42;28.40;45.20
38183;DHT22;23991;52.430;10.586;2023-07-09T06:56:09;28.70;44.60
38183;DHT22;23991;52.430;10.586;2023-07-09T06:58:36;28.90;44.80
38183;DHT22;23991;52.430;10.586;2023-07-09T07:01:03;28.90;44.10
38183;DHT22;23991;52.430;10.586;2023-07-09T07:03:33;29.10;44.50
38183;DHT22;23991;52.430;10.586;2023-07-09T07:05:58;29.30;43.70
38183;DHT22;23991;52.430;10.586;2023-07-09T07:08:25;29.20;43.80
38183;DHT22;23991;52.430;10.586;2023-07-09T07:10:56;29.60;43.60
38183;DHT22;23991;52.430;10.586;2023-07-09T07:13:33;29.70;43.20
38183;DHT22;23991;52.430;10.586;2023-07-09T07:16:01;29.60;42.70
38183;DHT22;23991;52.430;10.586;2023-07-09T07:18:27;29.80;43.00
38183;DHT22;23991;52.430;10.586;2023-07-09T07:20:53;30.20;42.40
38183;DHT22;23991;52.430;10.586;2023-07-09T07:23:19;30.50;41.40
38183;DHT22;23991;52.430;10.586;2023-07-09T07:25:46;30.90;39.20
38183;DHT22;23991;52.430;10.586;2023-07-09T07:28:12;31.20;38.90
38183;DHT22;23991;52.430;10.586;2023-07-09T07:30:37;31.40;37.60
38183;DHT22;23991;52.430;10.586;2023-07-09T07:33:03;31.60;38.60
38183;DHT22;23991;52.430;10.586;2023-07-09T07:35:28;32.10;38.00
38183;DHT22;23991;52.430;10.586;2023-07-09T07:37:54;32.10;38.30
38183;DHT22;23991;52.430;10.586;2023-07-09T07:40:20;32.40;38.40
38183;DHT22;23991;52.430;10.586;2023-07-09T07:42:48;32.90;36.30
38183;DHT22;23991;52.430;10.586;2023-07-09T07:45:14;33.20;36.20
38183;DHT22;23991;52.430;10.586;2023-07-09T07:47:40;33.50;36.50
38183;DHT22;23991;52.430;10.586;2023-07-09T07:50:07;33.60;35.80
38183;DHT22;23991;52.430;10.586;2023-07-09T07:52:33;33.70;35.20
38183;DHT22;23991;52.430;10.586;2023-07-09T07:55:06;33.90;35.60
38183;DHT22;23991;52.430;10.586;2023-07-09T07:57:31;34.00;35.10
38183;DHT22;23991;52.430;10.586;2023-07-09T07:59:57;34.30;34.50
38183;DHT22;23991;52.430;10.586;2023-07-09T08:02:23;34.40;34.60
38183;DHT22;23991;52.430;10.586;2023-07-09T08:04:49;34.70;34.10
38183;DHT22;23991;52.430;10.586;2023-07-09T08:07:17;34.90;34.20
38183;DHT22;23991;52.430;10.586;2023-07-09T08:09:44;35.10;33.70
38183;DHT22;23991;52.430;10.586;2023-07-09T08:12:13;35.20;33.70
38183;DHT22;23991;52.430;10.586;2023-07-09T08:14:40;35.40;33.70
38183;DHT22;23991;52.430;10.586;2023-07-09T08:17:09;35.70;33.00
38183;DHT22;23991;52.430;10.586;2023-07-09T08:19:52;35.70;32.30
38183;DHT22;23991;52.430;10.586;2023-07-09T08:22:21;36.10;32.50
38183;DHT22;23991;52.430;10.586;2023-07-09T08:24:51;36.30;32.30
38183;DHT22;23991;52.430;10.586;2023-07-09T08:27:17;36.60;32.00
38183;DHT22;23991;52.430;10.586;2023-07-09T08:29:42;36.90;31.50
38183;DHT22;23991;52.430;10.586;2023-07-09T08:32:09;36.90;31.30
38183;DHT22;23991;52.430;10.586;2023-07-09T08:34:35;37.10;31.20
38183;DHT22;23991;52.430;10.586;2023-07-09T08:37:02;37.20;31.00
38183;DHT22;23991;52.430;10.586;2023-07-09T08:39:31;37.30;32.10
38183;DHT22;23991;52.430;10.586;2023-07-09T08:42:06;37.40;31.40
38183;DHT22;23991;52.430;10.586;2023-07-09T08:44:48;37.30;31.30
38183;DHT22;23991;52.430;10.586;2023-07-09T08:47:30;37.70;30.40
38183;DHT22;23991;52.430;10.586;2023-07-09T08:50:04;38.10;30.10
38183;DHT22;23991;52.430;10.586;2023-07-09T08:52:35;38.40;30.20
38183;DHT22;23991;52.430;10.586;2023-07-09T08:55:11;38.60;29.40
38183;DHT22;23991;52.430;10.586;2023-07-09T08:57:58;38.80;28.90
38183;DHT22;23991;52.430;10.586;2023-07-09T09:00:40;38.90;28.80
38183;DHT22;23991;52.430;10.586;2023-07-09T09:03:50;39.20;28.30
38183;DHT22;23991;52.430;10.586;2023-07-09T09:06:17;39.40;27.90
38183;DHT22;23991;52.430;10.586;2023-07-09T09:08:53;39.60;28.00
38183;DHT22;23991;52.430;10.586;2023-07-09T09:11:30;39.80;27.50
38183;DHT22;23991;52.430;10.586;2023-07-09T09:14:00;39.90;28.10
38183;DHT22;23991;52.430;10.586;2023-07-09T09:16:30;40.20;27.30
38183;DHT22;23991;52.430;10.586;2023-07-09T09:19:00;40.50;27.10
38183;DHT22;23991;52.430;10.586;2023-07-09T09:21:32;40.30;27.10
38183;DHT22;23991;52.430;10.586;2023-07-09T09:24:20;40.40;26.70
38183;DHT22;23991;52.430;10.586;2023-07-09T09:26:49;40.80;26.50
38183;DHT22;23991;52.430;10.586;2023-07-09T09:29:17;41.20;26.40
38183;DHT22;23991;52.430;10.586;2023-07-09T09:31:46;41.30;25.30
38183;DHT22;23991;52.430;10.586;2023-07-09T09:34:19;41.20;25.40
38183;DHT22;23991;52.430;10.586;2023-07-09T09:36:45;41.30;26.00
38183;DHT22;23991;52.430;10.586;2023-07-09T09:39:11;41.80;25.60
38183;DHT22;23991;52.430;10.586;2023-07-09T09:41:37;42.30;24.80
38183;DHT22;23991;52.430;10.586;2023-07-09T09:44:35;42.30;24.10
38183;DHT22;23991;52.430;10.586;2023-07-09T09:47:03;42.60;24.40
38183;DHT22;23991;52.430;10.586;2023-07-09T09:49:29;42.80;24.20
38183;DHT22;23991;52.430;10.586;2023-07-09T09:51:55;42.80;24.10
38183;DHT22;23991;52.430;10.586;2023-07-09T09:54:28;43.00;23.90
38183;DHT22;23991;52.430;10.586;2023-07-09T09:56:56;43.20;23.60
38183;DHT22;23991;52.430;10.586;2023-07-09T09:59:31;43.30;23.70
38183;DHT22;23991;52.430;10.586;2023-07-09T10:02:05;43.30;23.20
38183;DHT22;23991;52.430;10.586;2023-07-09T10:04:38;43.30;22.90
38183;DHT22;23991;52.430;10.586;2023-07-09T10:07:13;43.40;22.60
38183;DHT22;23991;52.430;10.586;2023-07-09T10:12:43;43.60;22.50
38183;DHT22;23991;52.430;10.586;2023-07-09T10:15:48;43.60;22.80
38183;DHT22;23991;52.430;10.586;2023-07-09T10:18:34;43.70;22.50
38183;DHT22;23991;52.430;10.586;2023-07-09T10:21:30;43.80;22.70
38183;DHT22;23991;52.430;10.586;2023-07-09T10:26:53;44.20;22.10
38183;DHT22;23991;52.430;10.586;2023-07-09T10:34:52;44.40;22.10
38183;DHT22;23991;52.430;10.586;2023-07-09T10:40:21;44.70;21.10
38183;DHT22;23991;52.430;10.586;2023-07-09T10:42:57;44.80;20.70
38183;DHT22;23991;52.430;10.586;2023-07-09T10:45:33;44.90;20.40
38183;DHT22;23991;52.430;10.586;2023-07-09T10:48:12;44.90;21.10
38183;DHT22;23991;52.430;10.586;2023-07-09T10:50:43;45.00;20.60
38183;DHT22;23991;52.430;10.586;2023-07-09T10:56:16;45.00;20.60
38183;DHT22;23991;52.430;10.586;2023-07-09T10:59:13;45.10;20.10
38183;DHT22;23991;52.430;10.586;2023-07-09T11:01:45;45.10;20.20
38183;DHT22;23991;52.430;10.586;2023-07-09T11:04:31;45.20;20.60
38183;DHT22;23991;52.430;10.586;2023-07-09T11:07:02;45.30;20.20
38183;DHT22;23991;52.430;10.586;2023-07-09T11:09:37;45.50;19.70
38183;DHT22;23991;52.430;10.586;2023-07-09T11:12:17;45.50;20.00
38183;DHT22;23991;52.430;10.586;2023-07-09T11:14:55;45.60;19.60
38183;DHT22;23991;52.430;10.586;2023-07-09T11:17:27;45.70;19.30
38183;DHT22;23991;52.430;10.586;2023-07-09T11:20:00;45.70;19.70
38183;DHT22;23991;52.430;10.586;2023-07-09T11:22:39;45.70;19.30
38183;DHT22;23991;52.430;10.586;2023-07-09T11:25:14;45.70;18.90
38183;DHT22;23991;52.430;10.586;2023-07-09T11:28:00;45.80;19.30
38183;DHT22;23991;52.430;10.586;2023-07-09T11:30:30;45.90;19.00
38183;DHT22;23991;52.430;10.586;2023-07-09T11:33:02;46.00;19.20
38183;DHT22;23991;52.430;10.586;2023-07-09T11:35:49;46.00;19.00
38183;DHT22;23991;52.430;10.586;2023-07-09T11:38:21;46.10;18.40
38183;DHT22;23991;52.430;10.586;2023-07-09T11:40:56;46.10;18.50
38183;DHT22;23991;52.430;10.586;2023-07-09T11:43:34;46.10;18.20
38183;DHT22;23991;52.430;10.586;2023-07-09T11:46:26;46.10;18.30
38183;DHT22;23991;52.430;10.586;2023-07-09T11:48:54;46.20;18.30
38183;DHT22;23991;52.430;10.586;2023-07-09T11:51:40;46.10;18.30
38183;DHT22;23991;52.430;10.586;2023-07-09T11:54:11;46.20;17.80
38183;DHT22;23991;52.430;10.586;2023-07-09T11:56:57;46.20;18.40
38183;DHT22;23991;52.430;10.586;2023-07-09T11:59:23;46.40;18.70
38183;DHT22;23991;52.430;10.586;2023-07-09T12:01:51;46.50;18.10
38183;DHT22;23991;52.430;10.586;2023-07-09T12:04:20;46.60;17.90
38183;DHT22;23991;52.430;10.586;2023-07-09T12:06:52;46.60;18.00
38183;DHT22;23991;52.430;10.586;2023-07-09T12:09:20;46.60;18.00
38183;DHT22;23991;52.430;10.586;2023-07-09T12:11:50;46.80;18.10
38183;DHT22;23991;52.430;10.586;2023-07-09T12:14:19;46.60;17.70
38183;DHT22;23991;52.430;10.586;2023-07-09T12:16:49;46.60;17.60
38183;DHT22;23991;52.430;10.586;2023-07-09T12:19:20;46.70;17.80
38183;DHT22;23991;52.430;10.586;2023-07-09T12:21:52;46.70;18.10
38183;DHT22;23991;52.430;10.586;2023-07-09T12:24:35;46.80;18.00
38183;DHT22;23991;52.430;10.586;2023-07-09T12:27:03;46.90;17.80
38183;DHT22;23991;52.430;10.586;2023-07-09T12:29:47;46.80;17.90
38183;DHT22;23991;52.430;10.586;2023-07-09T12:32:16;46.80;17.50
38183;DHT22;23991;52.430;10.586;2023-07-09T12:34:46;46.70;17.20
38183;DHT22;23991;52.430;10.586;2023-07-09T12:37:14;46.90;17.70
38183;DHT22;23991;52.430;10.586;2023-07-09T12:39:40;46.80;17.80
38183;DHT22;23991;52.430;10.586;2023-07-09T12:42:25;46.80;18.60
38183;DHT22;23991;52.430;10.586;2023-07-09T12:44:54;46.90;17.60
38183;DHT22;23991;52.430;10.586;2023-07-09T12:47:20;47.00;17.60
38183;DHT22;23991;52.430;10.586;2023-07-09T12:50:16;47.10;17.30
38183;DHT22;23991;52.430;10.586;2023-07-09T12:52:46;47.00;17.20
38183;DHT22;23991;52.430;10.586;2023-07-09T12:55:24;47.00;17.50
38183;DHT22;23991;52.430;10.586;2023-07-09T12:57:58;46.90;17.40
38183;DHT22;23991;52.430;10.586;2023-07-09T13:00:31;46.80;17.90
38183;DHT22;23991;52.430;10.586;2023-07-09T13:02:59;46.90;17.90
38183;DHT22;23991;52.430;10.586;2023-07-09T13:05:26;46.80;16.70
38183;DHT22;23991;52.430;10.586;2023-07-09T13:07:59;46.70;17.00
38183;DHT22;23991;52.430;10.586;2023-07-09T13:10:40;46.90;17.60
38183;DHT22;23991;52.430;10.586;2023-07-09T13:13:06;47.00;17.50
38183;DHT22;23991;52.430;10.586;2023-07-09T13:15:39;47.10;16.80
38183;DHT22;23991;52.430;10.586;2023-07-09T13:18:06;47.10;17.20
38183;DHT22;23991;52.430;10.586;2023-07-09T13:20:35;47.10;16.60
38183;DHT22;23991;52.430;10.586;2023-07-09T13:23:13;47.10;16.40
38183;DHT22;23991;52.430;10.586;2023-07-09T13:25:40;47.10;16.10
38183;DHT22;23991;52.430;10.586;2023-07-09T13:28:34;47.10;16.80
38183;DHT22;23991;52.430;10.586;2023-07-09T13:31:04;47.10;17.20
38183;DHT22;23991;52.430;10.586;2023-07-09T13:33:34;47.10;17.60
38183;DHT22;23991;52.430;10.586;2023-07-09T13:35:59;47.00;17.40
38183;DHT22;23991;52.430;10.586;2023-07-09T13:38:26;46.90;17.30
38183;DHT22;23991;52.430;10.586;2023-07-09T13:40:57;46.90;18.00
38183;DHT22;23991;52.430;10.586;2023-07-09T13:43:35;46.80;17.80
38183;DHT22;23991;52.430;10.586;2023-07-09T13:46:06;46.80;17.90
38183;DHT22;23991;52.430;10.586;2023-07-09T13:48:33;46.80;17.80
38183;DHT22;23991;52.430;10.586;2023-07-09T13:51:01;46.60;17.70
38183;DHT22;23991;52.430;10.586;2023-07-09T13:53:31;46.60;17.20
38183;DHT22;23991;52.430;10.586;2023-07-09T13:56:00;46.60;17.70
38183;DHT22;23991;52.430;10.586;2023-07-09T13:58:27;46.60;17.20
38183;DHT22;23991;52.430;10.586;2023-07-09T14:01:14;46.70;17.70
38183;DHT22;23991;52.430;10.586;2023-07-09T14:03:42;46.60;17.40
38183;DHT22;23991;52.430;10.586;2023-07-09T14:06:16;46.50;17.80
38183;DHT22;23991;52.430;10.586;2023-07-09T14:08:42;46.60;17.60
38183;DHT22;23991;52.430;10.586;2023-07-09T14:11:13;46.60;18.40
38183;DHT22;23991;52.430;10.586;2023-07-09T14:13:43;46.60;18.20
38183;DHT22;23991;52.430;10.586;2023-07-09T14:16:15;46.60;17.90
38183;DHT22;23991;52.430;10.586;2023-07-09T14:18:41;46.40;17.60
38183;DHT22;23991;52.430;10.586;2023-07-09T14:21:26;46.30;17.40
38183;DHT22;23991;52.430;10.586;2023-07-09T14:23:53;46.00;17.60
38183;DHT22;23991;52.430;10.586;2023-07-09T14:26:19;46.00;17.90
38183;DHT22;23991;52.430;10.586;2023-07-09T14:28:47;45.90;18.50
38183;DHT22;23991;52.430;10.586;2023-07-09T14:31:26;46.00;18.00
38183;DHT22;23991;52.430;10.586;2023-07-09T14:33:52;45.80;18.30
38183;DHT22;23991;52.430;10.586;2023-07-09T14:36:17;45.90;18.70
38183;DHT22;23991;52.430;10.586;2023-07-09T14:38:46;46.10;18.10
38183;DHT22;23991;52.430;10.586;2023-07-09T14:41:19;46.10;17.80
38183;DHT22;23991;52.430;10.586;2023-07-09T14:43:54;46.00;17.70
38183;DHT22;23991;52.430;10.586;2023-07-09T14:46:27;46.10;17.60
38183;DHT22;23991;52.430;10.586;2023-07-09T14:48:52;46.20;18.70
38183;DHT22;23991;52.430;10.586;2023-07-09T14:51:18;46.00;18.60
38183;DHT22;23991;52.430;10.586;2023-07-09T14:53:45;46.00;18.60
38183;DHT22;23991;52.430;10.586;2023-07-09T14:56:13;46.00;18.30
38183;DHT22;23991;52.430;10.586;2023-07-09T14:58:39;46.00;17.90
38183;DHT22;23991;52.430;10.586;2023-07-09T15:01:24;45.60;17.90
38183;DHT22;23991;52.430;10.586;2023-07-09T15:03:50;45.80;18.00
38183;DHT22;23991;52.430;10.586;2023-07-09T15:06:16;45.80;17.90
38183;DHT22;23991;52.430;10.586;2023-07-09T15:08:42;45.60;17.80
38183;DHT22;23991;52.430;10.586;2023-07-09T15:11:09;45.60;18.00
38183;DHT22;23991;52.430;10.586;2023-07-09T15:13:36;45.70;18.40
38183;DHT22;23991;52.430;10.586;2023-07-09T15:16:03;45.60;17.50
38183;DHT22;23991;52.430;10.586;2023-07-09T15:18:29;45.50;18.40
38183;DHT22;23991;52.430;10.586;2023-07-09T15:21:00;45.20;18.80
38183;DHT22;23991;52.430;10.586;2023-07-09T15:23:29;45.20;18.80
38183;DHT22;23991;52.430;10.586;2023-07-09T15:25:58;45.20;19.00
38183;DHT22;23991;52.430;10.586;2023-07-09T15:28:24;45.00;18.60
38183;DHT22;23991;52.430;10.586;2023-07-09T15:30:54;45.10;18.40
38183;DHT22;23991;52.430;10.586;2023-07-09T15:33:28;45.00;17.80
38183;DHT22;23991;52.430;10.586;2023-07-09T15:35:54;44.90;17.40
38183;DHT22;23991;52.430;10.586;2023-07-09T15:38:32;44.70;18.50
38183;DHT22;23991;52.430;10.586;2023-07-09T15:40:59;44.70;18.20
38183;DHT22;23991;52.430;10.586;2023-07-09T15:43:25;44.60;18.50
38183;DHT22;23991;52.430;10.586;2023-07-09T15:45:54;44.40;18.40
38183;DHT22;23991;52.430;10.586;2023-07-09T15:48:26;44.30;19.60
38183;DHT22;23991;52.430;10.586;2023-07-09T15:50:55;44.30;19.30
38183;DHT22;23991;52.430;10.586;2023-07-09T15:53:25;44.30;19.60